Lake Tahoe Airport
KTVL : rendu visible

Aérodrome :











RETROUVEZ-NOUS SUR...

 
LOGIN :

S'inscrire | Disclaimer

   EN    FR    IT 

 









Légende :    VFR   VFR Marginal   IFR   IFR Intensif   IFR Très Intensif
Visi : 
Plafond : 
>= 8 km
>= 3000ft
5 à 8 km
1000 à 3000 ft
1500m à 5 km
500 à 1000 ft
800 à 1500m
200 à 500 ft
< 800m
< 200 ft
Symboles :   Orages  Brouillard  Fortes neiges  Fortes précipitations  Vent > 20 kt






- Altitude de l'aérodrome : 6264 ft
- Code IATA : TVL


KTVL - Lake Tahoe

DERNIER METAR :
  • 171753Z AUTO 00000KT 10SM CLR 09/M03 A3037 RMK AO2 SLP274 T00891033 10089 21044 50001 $

METARs EXPIRÉS :
  • 171653Z AUTO 18003KT 10SM CLR 02/M04 A3038 RMK AO2 SLP288 T00221039 $
  • 171553Z AUTO 18004KT 10SM CLR M02/M06 A3037 RMK AO2 SLP291 T10221056 $

TAF KTVL
Valide du 17 à 18h jusqu'au 18 à 18h UTC


171720Z 1718/1818 VRB04KT P6SM FEW140 SCT220
FM171900 04008KT P6SM FEW140 SCT220
FM180100 VRB03KT P6SM SCT220



MET'MAP, la Météo Aéronautique d'un coup d'oeil ! - Copyright ORBIFLY Décembre 2007 - Disclaimer

ORBIFLY MET'MAP TEAM :

Programmation & Développement : Alexandra Zaïnal
Conception & Développement : Baudouin d'Aumeries
Co-Programmation & Développement : Marc-Olivier Méhu
Soutien technique & logistique : Manuel Goepfert

Contact : metmap@orbifly.com




SOURCES & CREDITS :

   NOAA       Earth
Advisory